< Cyclone 197117 1971 Season Cyclone 197119 >
Cyclone 197118 (MAGGIE-MURIEL)
General InformationTrack Information on Google Maps || ResourceGoogle EarthGE AnimationAtom FeedGeoJSON
Detalied Best Track (Time Zone = UTC)
Year Month Day Hour Lat. Long. Pressure (hPa) Wind (kt) Class Image Chart
1971 3 7 00 -9.9 91.0 1004 0 0 -- --
1971 3 7 03 -10.0 90.7 1004 0 0 -- --
1971 3 7 06 -10.1 90.4 1004 0 0 -- --
1971 3 7 09 -10.3 90.1 1004 0 0 -- --
1971 3 7 12 -10.4 89.8 1004 0 0 -- --
1971 3 7 15 -10.5 89.6 1004 0 0 -- --
1971 3 7 18 -10.7 89.4 1004 0 0 -- --
1971 3 7 21 -10.8 89.2 1004 0 0 -- --
1971 3 8 00 -10.9 89.0 1004 0 0 -- --
1971 3 8 03 -11.1 88.7 1004 0 0 -- --
1971 3 8 06 -11.2 88.4 1003 0 0 -- --
1971 3 8 09 -11.3 88.1 1003 0 0 -- --
1971 3 8 12 -11.4 87.8 1002 0 0 -- --
1971 3 8 15 -11.5 87.5 1001 0 0 -- --
1971 3 8 18 -11.7 87.2 1000 0 0 -- --
1971 3 8 21 -11.8 87.1 999 0 0 -- --
1971 3 9 00 -11.9 87.0 998 0 0 -- --
1971 3 9 03 -12.0 86.9 998 0 0 -- --
1971 3 9 06 -12.1 86.8 997 0 0 -- --
1971 3 9 09 -12.2 86.7 996 0 0 -- --
1971 3 9 12 -12.4 86.6 995 0 0 -- --
1971 3 9 15 -12.5 86.5 994 0 0 -- --
1971 3 9 18 -12.6 86.4 993 0 0 -- --
1971 3 9 21 -12.7 86.2 992 0 0 -- --
1971 3 10 00 -12.9 86.0 990 0 0 -- --
1971 3 10 03 -12.9 85.9 989 0 0 -- --
1971 3 10 06 -12.9 85.8 988 0 0 -- --
1971 3 10 09 -12.9 85.7 986 0 0 -- --
1971 3 10 12 -12.9 85.6 985 0 0 -- --
1971 3 10 15 -12.9 85.5 984 0 0 -- --
1971 3 10 18 -12.9 85.4 983 0 0 -- --
1971 3 10 21 -12.9 85.2 982 0 0 -- --
1971 3 11 00 -12.9 85.0 980 0 0 -- --
1971 3 11 03 -12.9 84.9 979 0 0 -- --
1971 3 11 06 -12.9 84.8 978 0 0 -- --
1971 3 11 09 -12.9 84.7 977 0 0 -- --
1971 3 11 12 -12.9 84.6 976 0 0 -- --
1971 3 11 15 -12.9 84.5 975 0 0 -- --
1971 3 11 18 -12.9 84.2 974 0 0 -- --
1971 3 11 21 -12.9 84.1 973 0 0 -- --
1971 3 12 00 -12.9 84.0 970 0 0 -- --
1971 3 12 03 -13.3 83.5 969 0 0 -- --
1971 3 12 06 -13.7 83.0 968 0 0 -- --
1971 3 12 09 -14.1 82.5 967 0 0 -- --
1971 3 12 12 -14.5 82.0 966 0 0 -- --
1971 3 12 15 -14.9 81.5 965 0 0 -- --
1971 3 12 18 -15.3 81.0 960 0 0 -- --
1971 3 12 21 -15.7 80.5 960 0 0 -- --
1971 3 13 00 -15.9 80.0 960 0 0 -- --
1971 3 13 03 -16.2 79.4 960 0 0 -- --
1971 3 13 06 -16.5 79.2 960 0 0 -- --
1971 3 13 09 -16.8 79.0 960 0 0 -- --
1971 3 13 12 -17.1 78.6 960 0 0 -- --
1971 3 13 15 -17.4 78.4 960 0 0 -- --
1971 3 13 18 -17.7 78.2 960 0 0 -- --
1971 3 13 21 -18.0 78.0 960 0 0 -- --
1971 3 14 00 -18.3 77.6 958 0 0 -- --
1971 3 14 03 -18.6 77.2 958 0 0 -- --
1971 3 14 06 -18.7 77.0 958 0 0 -- --
1971 3 14 09 -19.1 76.6 957 0 0 -- --
1971 3 14 12 -19.4 76.2 957 0 0 -- --
1971 3 14 15 -19.7 75.8 957 0 0 -- --
1971 3 14 18 -20.0 75.4 956 0 0 -- --
1971 3 14 21 -20.3 75.0 956 0 0 -- --
1971 3 15 00 -20.6 74.6 956 0 0 -- --
1971 3 15 03 -20.9 74.2 955 0 0 -- --
1971 3 15 06 -21.1 73.8 954 0 0 -- --
1971 3 15 09 -21.4 73.4 954 0 0 -- --
1971 3 15 12 -21.7 73.0 953 0 0 -- --
1971 3 15 15 -21.8 72.8 952 0 0 -- --
1971 3 15 18 -21.9 72.5 951 0 0 -- --
1971 3 15 21 -21.9 72.3 950 0 0 -- --
1971 3 16 00 -21.9 72.0 950 0 0 -- --
1971 3 16 03 -22.2 72.5 950 0 0 -- --
1971 3 16 06 -22.5 73.0 951 0 0 -- --
1971 3 16 09 -22.8 73.5 952 0 0 -- --
1971 3 16 12 -23.1 74.0 953 0 0 -- --
1971 3 16 15 -23.4 74.5 954 0 0 -- --
1971 3 16 18 -23.7 75.0 955 0 0 -- --
1971 3 16 21 -23.9 75.5 956 0 0 -- --
1971 3 17 00 -24.9 76.0 957 0 0 -- --
1971 3 17 03 -25.9 76.0 958 0 0 -- --
1971 3 17 06 -26.9 76.0 959 0 0 -- --
1971 3 17 09 -27.9 76.5 960 0 0 -- --
1971 3 17 12 -28.9 77.0 962 0 0 -- --
1971 3 17 15 -29.9 77.5 964 0 0 -- --
1971 3 17 18 -30.9 78.0 966 0 0 -- --
1971 3 17 21 -32.9 79.0 968 0 0 -- --
1971 3 18 00 -34.9 81.0 970 0 0 -- --
1971 3 19 00 -35.9 94.0 998 0 0 -- --
1971 3 20 00 -39.9 100.0 1000 0 0 -- --
< Cyclone 197117 1971 Season Cyclone 197119 >

Help